Forside
METAR-TAF:

METAR-TAF

Lufthavne :

Waukesha County Airport (Crites Field)

Waukesha, Wisconsin, USA

Breddekreds: 43-02-28N, længdekreds: 088-14-13W, højde: 278 m

Aktuelle vejr

Denne rapport blev lavet for 49 minutter siden, kl. 20:45 UTC
Vind 8 kt fra vestnordvest
Temperatur -1°C
Fugtighed 86%
Tryk 1011 hPa
Sigt: 11.3 km
Overskyet i en højde af 700 ft

METAR: KUES 262045Z 29008KT 7SM OVC007 M01/M03 A2986

Tid: 15:34 (21:34 UTC)

Vejrudsigter

Denne rapport blev lavet for 4 timer og 2 minutter siden, kl. 17:32 UTC
Foreløbig gælder fra 26 på 18 UTC til 27 på 18 UTC
Vind 7 kt fra vest
Sigt: 10 km
Overskyet i en højde af 700 ft
Fra 26 på 2200 UTC
Vind 5 kt fra vest
Sigt: 10 km
Overskyet i en højde af 1100 ft
Fra 27 på 0600 UTC
Vind 4 kt fra varierende retninger
Sigt: 10 km
Overskyet i en højde af 900 ft

TAF: KUES 261732Z 2618/2718 27007KT P6SM OVC007 FM262200 28005KT P6SM OVC011 FM270600 VRB04KT P6SM OVC009

Vejrobservationer og prognoser fra mere end 4000 lufthavne (METAR og TAF).

De gule og røde prikker repræsenterer de meteorologiske stationer.

Flyt musen over at se navnet på stationen.

Så klik over at se vejr observationer og prognoser.

At skifte det kort: Klik på de grønne knapper med et sort kors for at zoome ind; på den grønne knap med en bindestreg for at zoome ud; eller på de grønne pile for tilstødende kort.


METAR-TAF: